sensor_id;sensor_type;location;lat;lon;timestamp;temperature;humidity
4054;DHT22;2042;47.956;9.222;2022-07-23T00:00:10;17.50;16.30
4054;DHT22;2042;47.956;9.222;2022-07-23T00:02:35;17.50;16.60
4054;DHT22;2042;47.956;9.222;2022-07-23T00:05:02;17.50;17.20
4054;DHT22;2042;47.956;9.222;2022-07-23T00:07:27;17.50;17.90
4054;DHT22;2042;47.956;9.222;2022-07-23T00:09:53;17.50;18.00
4054;DHT22;2042;47.956;9.222;2022-07-23T00:12:19;17.50;17.90
4054;DHT22;2042;47.956;9.222;2022-07-23T00:14:45;17.50;17.90
4054;DHT22;2042;47.956;9.222;2022-07-23T00:17:11;17.50;17.90
4054;DHT22;2042;47.956;9.222;2022-07-23T00:19:36;17.50;18.30
4054;DHT22;2042;47.956;9.222;2022-07-23T00:22:02;17.50;19.30
4054;DHT22;2042;47.956;9.222;2022-07-23T00:24:28;17.60;20.00
4054;DHT22;2042;47.956;9.222;2022-07-23T00:26:54;17.60;20.50
4054;DHT22;2042;47.956;9.222;2022-07-23T00:29:19;17.60;20.80
4054;DHT22;2042;47.956;9.222;2022-07-23T00:31:45;17.70;20.80
4054;DHT22;2042;47.956;9.222;2022-07-23T00:34:11;17.70;20.70
4054;DHT22;2042;47.956;9.222;2022-07-23T00:36:36;17.70;20.00
4054;DHT22;2042;47.956;9.222;2022-07-23T00:39:02;17.70;19.50
4054;DHT22;2042;47.956;9.222;2022-07-23T00:41:28;17.70;19.00
4054;DHT22;2042;47.956;9.222;2022-07-23T00:43:54;17.60;19.40
4054;DHT22;2042;47.956;9.222;2022-07-23T00:46:20;17.60;19.90
4054;DHT22;2042;47.956;9.222;2022-07-23T00:48:47;17.60;20.10
4054;DHT22;2042;47.956;9.222;2022-07-23T00:51:15;17.60;20.00
4054;DHT22;2042;47.956;9.222;2022-07-23T00:53:42;17.50;19.60
4054;DHT22;2042;47.956;9.222;2022-07-23T00:56:07;17.50;19.50
4054;DHT22;2042;47.956;9.222;2022-07-23T00:58:35;17.50;19.90
4054;DHT22;2042;47.956;9.222;2022-07-23T01:01:01;17.40;20.40
4054;DHT22;2042;47.956;9.222;2022-07-23T01:03:27;17.40;21.30
4054;DHT22;2042;47.956;9.222;2022-07-23T01:05:53;17.40;21.70
4054;DHT22;2042;47.956;9.222;2022-07-23T01:08:19;17.50;21.80
4054;DHT22;2042;47.956;9.222;2022-07-23T01:10:47;17.50;21.80
4054;DHT22;2042;47.956;9.222;2022-07-23T01:13:13;17.50;21.70
4054;DHT22;2042;47.956;9.222;2022-07-23T01:15:39;17.40;21.50
4054;DHT22;2042;47.956;9.222;2022-07-23T01:18:06;17.40;21.30
4054;DHT22;2042;47.956;9.222;2022-07-23T01:20:33;17.30;21.20
4054;DHT22;2042;47.956;9.222;2022-07-23T01:22:59;17.30;20.80
4054;DHT22;2042;47.956;9.222;2022-07-23T01:25:25;17.20;20.40
4054;DHT22;2042;47.956;9.222;2022-07-23T01:27:53;17.20;20.40
4054;DHT22;2042;47.956;9.222;2022-07-23T01:30:20;17.10;19.90
4054;DHT22;2042;47.956;9.222;2022-07-23T01:32:46;17.00;19.10
4054;DHT22;2042;47.956;9.222;2022-07-23T01:35:12;16.90;19.20
4054;DHT22;2042;47.956;9.222;2022-07-23T01:37:38;16.80;18.80
4054;DHT22;2042;47.956;9.222;2022-07-23T01:40:04;16.80;19.40
4054;DHT22;2042;47.956;9.222;2022-07-23T01:42:30;16.80;20.30
4054;DHT22;2042;47.956;9.222;2022-07-23T01:44:56;16.80;20.20
4054;DHT22;2042;47.956;9.222;2022-07-23T01:47:22;16.70;20.00
4054;DHT22;2042;47.956;9.222;2022-07-23T01:49:48;16.70;19.60
4054;DHT22;2042;47.956;9.222;2022-07-23T01:52:13;16.60;19.00
4054;DHT22;2042;47.956;9.222;2022-07-23T01:54:39;16.60;18.40
4054;DHT22;2042;47.956;9.222;2022-07-23T01:57:06;16.50;17.30
4054;DHT22;2042;47.956;9.222;2022-07-23T01:59:33;16.40;17.00
4054;DHT22;2042;47.956;9.222;2022-07-23T02:01:59;16.30;17.20
4054;DHT22;2042;47.956;9.222;2022-07-23T02:04:25;16.20;17.10
4054;DHT22;2042;47.956;9.222;2022-07-23T02:06:52;16.20;16.60
4054;DHT22;2042;47.956;9.222;2022-07-23T02:09:18;16.10;16.30
4054;DHT22;2042;47.956;9.222;2022-07-23T02:11:44;16.00;16.50
4054;DHT22;2042;47.956;9.222;2022-07-23T02:14:10;15.90;16.80
4054;DHT22;2042;47.956;9.222;2022-07-23T02:16:36;15.90;16.90
4054;DHT22;2042;47.956;9.222;2022-07-23T02:19:02;15.90;17.50
4054;DHT22;2042;47.956;9.222;2022-07-23T02:21:28;15.80;18.70
4054;DHT22;2042;47.956;9.222;2022-07-23T02:23:54;15.90;19.60
4054;DHT22;2042;47.956;9.222;2022-07-23T02:26:20;16.00;20.60
4054;DHT22;2042;47.956;9.222;2022-07-23T02:28:45;16.00;20.80
4054;DHT22;2042;47.956;9.222;2022-07-23T02:31:11;16.10;21.10
4054;DHT22;2042;47.956;9.222;2022-07-23T02:33:37;16.10;21.30
4054;DHT22;2042;47.956;9.222;2022-07-23T02:36:03;16.10;21.40
4054;DHT22;2042;47.956;9.222;2022-07-23T02:38:29;16.20;21.50
4054;DHT22;2042;47.956;9.222;2022-07-23T02:40:54;16.20;21.40
4054;DHT22;2042;47.956;9.222;2022-07-23T02:43:20;16.20;21.40
4054;DHT22;2042;47.956;9.222;2022-07-23T02:45:45;16.20;21.80
4054;DHT22;2042;47.956;9.222;2022-07-23T02:48:11;16.30;22.30
4054;DHT22;2042;47.956;9.222;2022-07-23T02:50:38;16.30;22.20
4054;DHT22;2042;47.956;9.222;2022-07-23T02:53:04;16.30;22.20
4054;DHT22;2042;47.956;9.222;2022-07-23T02:55:30;16.30;22.10
4054;DHT22;2042;47.956;9.222;2022-07-23T02:57:56;16.30;22.10
4054;DHT22;2042;47.956;9.222;2022-07-23T03:00:22;16.30;22.20
4054;DHT22;2042;47.956;9.222;2022-07-23T03:02:48;16.30;22.00
4054;DHT22;2042;47.956;9.222;2022-07-23T03:05:14;16.30;21.30
4054;DHT22;2042;47.956;9.222;2022-07-23T03:07:39;16.20;21.00
4054;DHT22;2042;47.956;9.222;2022-07-23T03:10:05;16.20;21.70
4054;DHT22;2042;47.956;9.222;2022-07-23T03:12:31;16.20;22.20
4054;DHT22;2042;47.956;9.222;2022-07-23T03:14:57;16.20;22.40
4054;DHT22;2042;47.956;9.222;2022-07-23T03:17:23;16.20;22.40
4054;DHT22;2042;47.956;9.222;2022-07-23T03:19:49;16.20;22.40
4054;DHT22;2042;47.956;9.222;2022-07-23T03:22:15;16.20;22.80
4054;DHT22;2042;47.956;9.222;2022-07-23T03:24:40;16.30;22.60
4054;DHT22;2042;47.956;9.222;2022-07-23T03:27:28;16.20;21.80
4054;DHT22;2042;47.956;9.222;2022-07-23T03:29:55;16.10;21.10
4054;DHT22;2042;47.956;9.222;2022-07-23T03:32:22;16.10;21.40
4054;DHT22;2042;47.956;9.222;2022-07-23T03:34:49;16.10;21.20
4054;DHT22;2042;47.956;9.222;2022-07-23T03:37:15;16.00;21.60
4054;DHT22;2042;47.956;9.222;2022-07-23T03:39:41;16.00;22.10
4054;DHT22;2042;47.956;9.222;2022-07-23T03:42:07;16.00;21.70
4054;DHT22;2042;47.956;9.222;2022-07-23T03:44:33;16.00;22.20
4054;DHT22;2042;47.956;9.222;2022-07-23T03:46:59;16.00;22.30
4054;DHT22;2042;47.956;9.222;2022-07-23T03:49:25;16.00;22.60
4054;DHT22;2042;47.956;9.222;2022-07-23T03:51:50;16.00;22.80
4054;DHT22;2042;47.956;9.222;2022-07-23T03:54:16;16.00;22.60
4054;DHT22;2042;47.956;9.222;2022-07-23T03:56:42;16.00;22.70
4054;DHT22;2042;47.956;9.222;2022-07-23T03:59:08;16.00;22.90
4054;DHT22;2042;47.956;9.222;2022-07-23T04:01:34;16.00;22.60
4054;DHT22;2042;47.956;9.222;2022-07-23T04:04:00;16.00;22.80
4054;DHT22;2042;47.956;9.222;2022-07-23T04:06:27;16.00;22.70
4054;DHT22;2042;47.956;9.222;2022-07-23T04:08:53;16.00;22.80
4054;DHT22;2042;47.956;9.222;2022-07-23T04:11:18;16.00;23.30
4054;DHT22;2042;47.956;9.222;2022-07-23T04:13:44;16.10;23.20
4054;DHT22;2042;47.956;9.222;2022-07-23T04:16:10;16.10;22.90
4054;DHT22;2042;47.956;9.222;2022-07-23T04:18:35;16.10;22.70
4054;DHT22;2042;47.956;9.222;2022-07-23T04:21:01;16.10;22.20
4054;DHT22;2042;47.956;9.222;2022-07-23T04:23:27;16.00;22.00
4054;DHT22;2042;47.956;9.222;2022-07-23T04:25:52;16.00;22.50
4054;DHT22;2042;47.956;9.222;2022-07-23T04:28:19;16.00;22.70
4054;DHT22;2042;47.956;9.222;2022-07-23T04:30:45;16.00;23.00
4054;DHT22;2042;47.956;9.222;2022-07-23T04:33:11;16.00;23.20
4054;DHT22;2042;47.956;9.222;2022-07-23T04:35:36;16.00;23.40
4054;DHT22;2042;47.956;9.222;2022-07-23T04:38:03;16.00;23.00
4054;DHT22;2042;47.956;9.222;2022-07-23T04:40:29;16.10;23.00
4054;DHT22;2042;47.956;9.222;2022-07-23T04:42:55;16.10;23.30
4054;DHT22;2042;47.956;9.222;2022-07-23T04:45:21;16.10;23.50
4054;DHT22;2042;47.956;9.222;2022-07-23T04:47:49;16.10;23.80
4054;DHT22;2042;47.956;9.222;2022-07-23T04:50:15;16.20;23.90
4054;DHT22;2042;47.956;9.222;2022-07-23T04:52:44;16.20;23.90
4054;DHT22;2042;47.956;9.222;2022-07-23T04:55:10;16.30;24.30
4054;DHT22;2042;47.956;9.222;2022-07-23T04:57:36;16.30;24.50
4054;DHT22;2042;47.956;9.222;2022-07-23T05:00:04;16.30;23.90
4054;DHT22;2042;47.956;9.222;2022-07-23T05:02:30;16.30;23.80
4054;DHT22;2042;47.956;9.222;2022-07-23T05:04:55;16.30;23.80
4054;DHT22;2042;47.956;9.222;2022-07-23T05:07:21;16.30;23.80
4054;DHT22;2042;47.956;9.222;2022-07-23T05:09:47;16.30;24.00
4054;DHT22;2042;47.956;9.222;2022-07-23T05:12:12;16.30;23.90
4054;DHT22;2042;47.956;9.222;2022-07-23T05:14:39;16.30;24.00
4054;DHT22;2042;47.956;9.222;2022-07-23T05:17:05;16.30;24.30
4054;DHT22;2042;47.956;9.222;2022-07-23T05:19:30;16.30;24.60
4054;DHT22;2042;47.956;9.222;2022-07-23T05:21:56;16.40;24.70
4054;DHT22;2042;47.956;9.222;2022-07-23T05:24:22;16.40;24.80
4054;DHT22;2042;47.956;9.222;2022-07-23T05:26:50;16.50;24.80
4054;DHT22;2042;47.956;9.222;2022-07-23T05:29:15;16.50;24.80
4054;DHT22;2042;47.956;9.222;2022-07-23T05:31:41;16.50;24.90
4054;DHT22;2042;47.956;9.222;2022-07-23T05:34:07;16.50;24.80
4054;DHT22;2042;47.956;9.222;2022-07-23T05:36:33;16.50;24.80
4054;DHT22;2042;47.956;9.222;2022-07-23T05:38:58;16.60;24.80
4054;DHT22;2042;47.956;9.222;2022-07-23T05:41:24;16.60;24.80
4054;DHT22;2042;47.956;9.222;2022-07-23T05:43:50;16.60;24.70
4054;DHT22;2042;47.956;9.222;2022-07-23T05:46:16;16.60;31.40
4054;DHT22;2042;47.956;9.222;2022-07-23T05:48:41;16.60;28.20
4054;DHT22;2042;47.956;9.222;2022-07-23T05:51:08;16.60;24.90
4054;DHT22;2042;47.956;9.222;2022-07-23T05:53:34;16.70;25.10
4054;DHT22;2042;47.956;9.222;2022-07-23T05:56:01;16.70;24.80
4054;DHT22;2042;47.956;9.222;2022-07-23T05:58:27;16.70;24.30
4054;DHT22;2042;47.956;9.222;2022-07-23T06:00:53;16.70;24.50
4054;DHT22;2042;47.956;9.222;2022-07-23T06:03:19;16.80;24.90
4054;DHT22;2042;47.956;9.222;2022-07-23T06:05:45;16.90;25.10
4054;DHT22;2042;47.956;9.222;2022-07-23T06:08:11;16.90;25.10
4054;DHT22;2042;47.956;9.222;2022-07-23T06:10:37;17.00;25.80
4054;DHT22;2042;47.956;9.222;2022-07-23T06:13:03;17.20;26.10
4054;DHT22;2042;47.956;9.222;2022-07-23T06:15:29;17.30;26.20
4054;DHT22;2042;47.956;9.222;2022-07-23T06:17:56;17.40;25.40
4054;DHT22;2042;47.956;9.222;2022-07-23T06:20:21;17.40;24.40
4054;DHT22;2042;47.956;9.222;2022-07-23T06:22:47;17.40;23.50
4054;DHT22;2042;47.956;9.222;2022-07-23T06:25:13;17.70;25.70
4054;DHT22;2042;47.956;9.222;2022-07-23T06:27:38;18.40;27.20
4054;DHT22;2042;47.956;9.222;2022-07-23T06:30:05;19.20;24.80
4054;DHT22;2042;47.956;9.222;2022-07-23T06:32:31;20.10;16.70
4054;DHT22;2042;47.956;9.222;2022-07-23T06:34:57;21.10;4.70
4054;DHT22;2042;47.956;9.222;2022-07-23T06:37:22;22.00;1.00
4054;DHT22;2042;47.956;9.222;2022-07-23T06:39:49;22.60;1.00
4054;DHT22;2042;47.956;9.222;2022-07-23T06:42:14;23.20;1.00
4054;DHT22;2042;47.956;9.222;2022-07-23T06:44:40;23.10;1.00
4054;DHT22;2042;47.956;9.222;2022-07-23T06:47:06;22.90;1.00
4054;DHT22;2042;47.956;9.222;2022-07-23T06:49:32;23.10;1.00
4054;DHT22;2042;47.956;9.222;2022-07-23T06:51:58;23.40;1.00
4054;DHT22;2042;47.956;9.222;2022-07-23T06:54:24;23.40;1.00
4054;DHT22;2042;47.956;9.222;2022-07-23T06:56:50;23.20;1.00
4054;DHT22;2042;47.956;9.222;2022-07-23T06:59:15;23.30;1.00
4054;DHT22;2042;47.956;9.222;2022-07-23T07:01:41;23.90;1.00
4054;DHT22;2042;47.956;9.222;2022-07-23T07:04:07;24.60;1.00
4054;DHT22;2042;47.956;9.222;2022-07-23T07:06:32;24.90;1.00
4054;DHT22;2042;47.956;9.222;2022-07-23T07:08:58;25.10;1.00
4054;DHT22;2042;47.956;9.222;2022-07-23T07:11:24;25.40;1.00
4054;DHT22;2042;47.956;9.222;2022-07-23T07:13:51;25.60;1.00
4054;DHT22;2042;47.956;9.222;2022-07-23T07:16:16;25.80;1.00
4054;DHT22;2042;47.956;9.222;2022-07-23T07:18:42;26.20;1.00
4054;DHT22;2042;47.956;9.222;2022-07-23T07:21:08;26.40;1.00
4054;DHT22;2042;47.956;9.222;2022-07-23T07:23:33;26.00;1.00
4054;DHT22;2042;47.956;9.222;2022-07-23T07:25:59;25.40;1.00
4054;DHT22;2042;47.956;9.222;2022-07-23T07:28:25;24.90;1.00
4054;DHT22;2042;47.956;9.222;2022-07-23T07:30:51;24.40;1.00
4054;DHT22;2042;47.956;9.222;2022-07-23T07:33:17;23.90;1.00
4054;DHT22;2042;47.956;9.222;2022-07-23T07:35:42;23.60;1.00
4054;DHT22;2042;47.956;9.222;2022-07-23T07:38:08;23.30;1.00
4054;DHT22;2042;47.956;9.222;2022-07-23T07:40:34;22.90;1.00
4054;DHT22;2042;47.956;9.222;2022-07-23T07:43:00;22.50;1.00
4054;DHT22;2042;47.956;9.222;2022-07-23T07:45:27;22.10;1.00
4054;DHT22;2042;47.956;9.222;2022-07-23T07:47:52;21.90;1.00
4054;DHT22;2042;47.956;9.222;2022-07-23T07:50:19;21.80;1.00
4054;DHT22;2042;47.956;9.222;2022-07-23T07:52:45;21.80;1.00
4054;DHT22;2042;47.956;9.222;2022-07-23T07:55:11;21.90;1.00
4054;DHT22;2042;47.956;9.222;2022-07-23T07:57:38;22.50;1.00
4054;DHT22;2042;47.956;9.222;2022-07-23T08:00:09;23.90;1.00
4054;DHT22;2042;47.956;9.222;2022-07-23T08:02:46;24.70;1.00
4054;DHT22;2042;47.956;9.222;2022-07-23T08:05:13;25.00;1.00
4054;DHT22;2042;47.956;9.222;2022-07-23T08:07:39;25.40;1.00
4054;DHT22;2042;47.956;9.222;2022-07-23T08:10:09;25.40;1.00
4054;DHT22;2042;47.956;9.222;2022-07-23T08:12:52;25.30;1.00
4054;DHT22;2042;47.956;9.222;2022-07-23T08:15:20;24.90;1.00
4054;DHT22;2042;47.956;9.222;2022-07-23T08:17:47;24.70;1.00
4054;DHT22;2042;47.956;9.222;2022-07-23T08:20:14;24.50;1.00
4054;DHT22;2042;47.956;9.222;2022-07-23T08:25:19;23.50;1.00
4054;DHT22;2042;47.956;9.222;2022-07-23T08:27:45;23.20;1.00
4054;DHT22;2042;47.956;9.222;2022-07-23T08:30:11;23.10;1.00
4054;DHT22;2042;47.956;9.222;2022-07-23T08:33:05;23.20;1.00
4054;DHT22;2042;47.956;9.222;2022-07-23T08:35:35;23.80;1.00
4054;DHT22;2042;47.956;9.222;2022-07-23T08:38:03;25.40;1.00
4054;DHT22;2042;47.956;9.222;2022-07-23T08:40:32;26.70;1.00
4054;DHT22;2042;47.956;9.222;2022-07-23T08:42:59;28.40;1.00
4054;DHT22;2042;47.956;9.222;2022-07-23T08:45:26;29.10;1.00
4054;DHT22;2042;47.956;9.222;2022-07-23T08:47:54;29.20;1.00
4054;DHT22;2042;47.956;9.222;2022-07-23T08:50:21;28.60;1.00
4054;DHT22;2042;47.956;9.222;2022-07-23T08:52:50;28.40;1.00
4054;DHT22;2042;47.956;9.222;2022-07-23T08:55:18;29.40;1.00
4054;DHT22;2042;47.956;9.222;2022-07-23T08:57:44;29.70;1.00
4054;DHT22;2042;47.956;9.222;2022-07-23T09:00:11;29.90;1.00
4054;DHT22;2042;47.956;9.222;2022-07-23T09:02:42;29.50;1.00
4054;DHT22;2042;47.956;9.222;2022-07-23T09:05:09;28.80;1.00
4054;DHT22;2042;47.956;9.222;2022-07-23T09:07:36;27.80;1.00
4054;DHT22;2042;47.956;9.222;2022-07-23T09:10:10;26.90;1.00
4054;DHT22;2042;47.956;9.222;2022-07-23T09:12:37;26.10;1.00
4054;DHT22;2042;47.956;9.222;2022-07-23T09:15:05;25.70;1.00
4054;DHT22;2042;47.956;9.222;2022-07-23T09:17:37;25.40;1.00
4054;DHT22;2042;47.956;9.222;2022-07-23T09:20:15;25.30;1.00
4054;DHT22;2042;47.956;9.222;2022-07-23T09:22:47;25.50;1.00
4054;DHT22;2042;47.956;9.222;2022-07-23T09:25:18;26.20;1.00
4054;DHT22;2042;47.956;9.222;2022-07-23T09:27:51;27.50;1.00
4054;DHT22;2042;47.956;9.222;2022-07-23T09:30:22;28.40;1.00
4054;DHT22;2042;47.956;9.222;2022-07-23T09:33:08;29.10;1.00
4054;DHT22;2042;47.956;9.222;2022-07-23T09:35:48;29.70;1.00
4054;DHT22;2042;47.956;9.222;2022-07-23T09:38:15;30.40;1.00
4054;DHT22;2042;47.956;9.222;2022-07-23T09:40:41;31.00;1.00
4054;DHT22;2042;47.956;9.222;2022-07-23T09:43:07;31.40;1.00
4054;DHT22;2042;47.956;9.222;2022-07-23T09:45:33;31.20;1.00
4054;DHT22;2042;47.956;9.222;2022-07-23T09:50:38;29.80;1.00
4054;DHT22;2042;47.956;9.222;2022-07-23T09:53:04;29.40;1.00
4054;DHT22;2042;47.956;9.222;2022-07-23T09:55:35;30.00;1.00
4054;DHT22;2042;47.956;9.222;2022-07-23T09:58:06;31.00;1.00
4054;DHT22;2042;47.956;9.222;2022-07-23T10:00:35;31.90;1.00
4054;DHT22;2042;47.956;9.222;2022-07-23T10:03:01;33.10;1.00
4054;DHT22;2042;47.956;9.222;2022-07-23T10:05:29;33.20;1.00
4054;DHT22;2042;47.956;9.222;2022-07-23T10:07:55;32.70;1.00
4054;DHT22;2042;47.956;9.222;2022-07-23T10:10:22;31.50;1.00
4054;DHT22;2042;47.956;9.222;2022-07-23T10:12:53;30.10;1.00
4054;DHT22;2042;47.956;9.222;2022-07-23T10:15:21;28.60;1.00
4054;DHT22;2042;47.956;9.222;2022-07-23T10:17:48;27.40;1.00
4054;DHT22;2042;47.956;9.222;2022-07-23T10:20:14;26.50;1.00
4054;DHT22;2042;47.956;9.222;2022-07-23T10:22:58;25.90;1.00
4054;DHT22;2042;47.956;9.222;2022-07-23T10:25:45;25.50;1.00
4054;DHT22;2042;47.956;9.222;2022-07-23T10:33:51;26.00;1.00
4054;DHT22;2042;47.956;9.222;2022-07-23T10:37:12;26.90;1.00
4054;DHT22;2042;47.956;9.222;2022-07-23T10:39:42;28.20;1.00
4054;DHT22;2042;47.956;9.222;2022-07-23T10:42:15;28.60;1.00
4054;DHT22;2042;47.956;9.222;2022-07-23T10:47:08;28.60;1.00
4054;DHT22;2042;47.956;9.222;2022-07-23T10:49:46;28.60;1.00
4054;DHT22;2042;47.956;9.222;2022-07-23T10:52:18;28.70;1.00
4054;DHT22;2042;47.956;9.222;2022-07-23T10:54:48;28.80;1.00
4054;DHT22;2042;47.956;9.222;2022-07-23T10:57:17;29.00;1.00
4054;DHT22;2042;47.956;9.222;2022-07-23T11:02:38;28.80;1.00
4054;DHT22;2042;47.956;9.222;2022-07-23T11:05:09;28.90;1.00
4054;DHT22;2042;47.956;9.222;2022-07-23T11:07:36;29.10;1.00
4054;DHT22;2042;47.956;9.222;2022-07-23T11:10:04;29.10;1.00
4054;DHT22;2042;47.956;9.222;2022-07-23T11:15:11;29.00;1.00
4054;DHT22;2042;47.956;9.222;2022-07-23T11:22:39;28.90;1.00
4054;DHT22;2042;47.956;9.222;2022-07-23T11:25:06;29.20;1.00
4054;DHT22;2042;47.956;9.222;2022-07-23T11:27:45;29.90;1.00
4054;DHT22;2042;47.956;9.222;2022-07-23T11:30:38;31.00;1.00
4054;DHT22;2042;47.956;9.222;2022-07-23T11:35:35;33.70;1.00
4054;DHT22;2042;47.956;9.222;2022-07-23T11:38:22;34.20;1.00
4054;DHT22;2042;47.956;9.222;2022-07-23T11:40:51;34.00;1.00
4054;DHT22;2042;47.956;9.222;2022-07-23T11:43:17;33.80;1.00
4054;DHT22;2042;47.956;9.222;2022-07-23T11:45:52;34.10;1.00
4054;DHT22;2042;47.956;9.222;2022-07-23T11:48:29;34.50;1.00
4054;DHT22;2042;47.956;9.222;2022-07-23T11:50:57;34.10;1.00
4054;DHT22;2042;47.956;9.222;2022-07-23T11:53:28;33.50;1.00
4054;DHT22;2042;47.956;9.222;2022-07-23T11:55:54;33.10;1.00
4054;DHT22;2042;47.956;9.222;2022-07-23T11:58:27;32.80;1.00
4054;DHT22;2042;47.956;9.222;2022-07-23T12:00:55;32.50;1.00
4054;DHT22;2042;47.956;9.222;2022-07-23T12:03:21;32.60;1.00
4054;DHT22;2042;47.956;9.222;2022-07-23T12:05:46;33.30;1.00
4054;DHT22;2042;47.956;9.222;2022-07-23T12:08:12;34.30;1.00
4054;DHT22;2042;47.956;9.222;2022-07-23T12:10:43;34.90;1.00
4054;DHT22;2042;47.956;9.222;2022-07-23T12:13:12;35.70;1.00
4054;DHT22;2042;47.956;9.222;2022-07-23T12:15:49;36.00;1.00
4054;DHT22;2042;47.956;9.222;2022-07-23T12:18:19;36.60;1.00
4054;DHT22;2042;47.956;9.222;2022-07-23T12:20:48;37.00;1.00
4054;DHT22;2042;47.956;9.222;2022-07-23T12:23:16;36.50;1.00
4054;DHT22;2042;47.956;9.222;2022-07-23T12:25:45;35.90;1.00
4054;DHT22;2042;47.956;9.222;2022-07-23T12:28:16;35.30;1.00
4054;DHT22;2042;47.956;9.222;2022-07-23T12:30:50;35.40;1.00
4054;DHT22;2042;47.956;9.222;2022-07-23T12:33:28;36.10;1.00
4054;DHT22;2042;47.956;9.222;2022-07-23T12:35:56;36.70;1.00
4054;DHT22;2042;47.956;9.222;2022-07-23T12:38:23;36.90;1.00
4054;DHT22;2042;47.956;9.222;2022-07-23T12:40:57;36.80;1.00
4054;DHT22;2042;47.956;9.222;2022-07-23T12:43:24;36.40;1.00
4054;DHT22;2042;47.956;9.222;2022-07-23T12:45:53;36.50;1.00
4054;DHT22;2042;47.956;9.222;2022-07-23T13:01:09;34.50;1.00
4054;DHT22;2042;47.956;9.222;2022-07-23T13:03:40;34.50;1.00
4054;DHT22;2042;47.956;9.222;2022-07-23T13:06:08;34.60;1.00
4054;DHT22;2042;47.956;9.222;2022-07-23T13:08:36;34.60;1.00
4054;DHT22;2042;47.956;9.222;2022-07-23T13:11:04;34.80;1.00
4054;DHT22;2042;47.956;9.222;2022-07-23T13:13:32;35.40;1.00
4054;DHT22;2042;47.956;9.222;2022-07-23T13:15:58;35.70;1.00
4054;DHT22;2042;47.956;9.222;2022-07-23T13:18:26;36.20;1.00
4054;DHT22;2042;47.956;9.222;2022-07-23T13:20:51;36.40;1.00
4054;DHT22;2042;47.956;9.222;2022-07-23T13:23:18;36.60;1.00
4054;DHT22;2042;47.956;9.222;2022-07-23T13:25:45;36.80;1.00
4054;DHT22;2042;47.956;9.222;2022-07-23T13:28:11;36.40;1.00
4054;DHT22;2042;47.956;9.222;2022-07-23T13:30:38;36.20;1.00
4054;DHT22;2042;47.956;9.222;2022-07-23T13:33:04;36.00;1.00
4054;DHT22;2042;47.956;9.222;2022-07-23T13:35:31;36.10;1.00
4054;DHT22;2042;47.956;9.222;2022-07-23T13:37:57;36.10;1.00
4054;DHT22;2042;47.956;9.222;2022-07-23T13:40:23;35.90;1.00
4054;DHT22;2042;47.956;9.222;2022-07-23T13:42:48;35.20;1.00
4054;DHT22;2042;47.956;9.222;2022-07-23T13:45:14;34.50;1.00
4054;DHT22;2042;47.956;9.222;2022-07-23T13:47:40;35.00;1.00
4054;DHT22;2042;47.956;9.222;2022-07-23T13:50:07;35.70;1.00
4054;DHT22;2042;47.956;9.222;2022-07-23T13:52:32;36.20;1.00
4054;DHT22;2042;47.956;9.222;2022-07-23T13:55:01;36.70;1.00
4054;DHT22;2042;47.956;9.222;2022-07-23T13:57:28;37.40;1.00
4054;DHT22;2042;47.956;9.222;2022-07-23T13:59:54;38.00;1.00
4054;DHT22;2042;47.956;9.222;2022-07-23T14:02:19;38.10;1.00
4054;DHT22;2042;47.956;9.222;2022-07-23T14:04:45;38.00;1.00
4054;DHT22;2042;47.956;9.222;2022-07-23T14:07:11;37.30;1.00
4054;DHT22;2042;47.956;9.222;2022-07-23T14:09:37;37.00;1.00
4054;DHT22;2042;47.956;9.222;2022-07-23T14:12:04;37.20;1.00
4054;DHT22;2042;47.956;9.222;2022-07-23T14:14:30;37.00;1.00
4054;DHT22;2042;47.956;9.222;2022-07-23T14:16:56;36.70;1.00
4054;DHT22;2042;47.956;9.222;2022-07-23T14:19:22;37.10;1.00
4054;DHT22;2042;47.956;9.222;2022-07-23T14:21:48;37.60;1.00
4054;DHT22;2042;47.956;9.222;2022-07-23T14:24:15;37.50;1.00
4054;DHT22;2042;47.956;9.222;2022-07-23T14:26:40;37.00;1.00
4054;DHT22;2042;47.956;9.222;2022-07-23T14:29:06;36.80;1.00
4054;DHT22;2042;47.956;9.222;2022-07-23T14:31:32;36.00;1.00
4054;DHT22;2042;47.956;9.222;2022-07-23T14:33:58;34.70;1.00
4054;DHT22;2042;47.956;9.222;2022-07-23T14:36:25;33.70;1.00
4054;DHT22;2042;47.956;9.222;2022-07-23T14:38:51;33.00;1.00
4054;DHT22;2042;47.956;9.222;2022-07-23T14:41:16;32.30;1.00
4054;DHT22;2042;47.956;9.222;2022-07-23T14:43:43;31.90;1.00
4054;DHT22;2042;47.956;9.222;2022-07-23T14:46:09;31.60;1.00
4054;DHT22;2042;47.956;9.222;2022-07-23T14:48:36;31.20;1.00
4054;DHT22;2042;47.956;9.222;2022-07-23T14:51:02;30.90;1.00
4054;DHT22;2042;47.956;9.222;2022-07-23T14:53:29;30.50;1.00
4054;DHT22;2042;47.956;9.222;2022-07-23T14:55:55;30.00;1.00
4054;DHT22;2042;47.956;9.222;2022-07-23T14:58:23;29.70;1.00
4054;DHT22;2042;47.956;9.222;2022-07-23T15:00:50;29.10;1.00
4054;DHT22;2042;47.956;9.222;2022-07-23T15:03:15;28.70;1.00
4054;DHT22;2042;47.956;9.222;2022-07-23T15:05:42;28.50;1.00
4054;DHT22;2042;47.956;9.222;2022-07-23T15:08:08;28.50;1.00
4054;DHT22;2042;47.956;9.222;2022-07-23T15:10:34;28.50;1.00
4054;DHT22;2042;47.956;9.222;2022-07-23T15:12:59;28.60;1.00
4054;DHT22;2042;47.956;9.222;2022-07-23T15:15:25;28.70;1.00
4054;DHT22;2042;47.956;9.222;2022-07-23T15:17:51;28.90;1.00
4054;DHT22;2042;47.956;9.222;2022-07-23T15:20:17;29.30;1.00
4054;DHT22;2042;47.956;9.222;2022-07-23T15:22:42;29.50;1.00
4054;DHT22;2042;47.956;9.222;2022-07-23T15:25:11;29.50;1.00
4054;DHT22;2042;47.956;9.222;2022-07-23T15:27:36;29.30;1.00
4054;DHT22;2042;47.956;9.222;2022-07-23T15:30:04;29.10;1.00
4054;DHT22;2042;47.956;9.222;2022-07-23T15:32:30;29.00;1.00
4054;DHT22;2042;47.956;9.222;2022-07-23T15:34:56;28.60;1.00
4054;DHT22;2042;47.956;9.222;2022-07-23T15:37:22;28.60;1.00
4054;DHT22;2042;47.956;9.222;2022-07-23T15:39:51;29.10;1.00
4054;DHT22;2042;47.956;9.222;2022-07-23T15:42:16;30.10;1.00
4054;DHT22;2042;47.956;9.222;2022-07-23T15:44:43;31.60;1.00
4054;DHT22;2042;47.956;9.222;2022-07-23T15:47:15;32.80;1.00
4054;DHT22;2042;47.956;9.222;2022-07-23T15:49:41;33.10;1.00
4054;DHT22;2042;47.956;9.222;2022-07-23T15:52:07;33.20;1.00
4054;DHT22;2042;47.956;9.222;2022-07-23T15:54:39;32.90;1.00
4054;DHT22;2042;47.956;9.222;2022-07-23T15:57:05;32.60;1.00
4054;DHT22;2042;47.956;9.222;2022-07-23T15:59:31;32.60;1.00
4054;DHT22;2042;47.956;9.222;2022-07-23T16:01:58;32.60;1.00
4054;DHT22;2042;47.956;9.222;2022-07-23T16:04:24;32.90;1.00
4054;DHT22;2042;47.956;9.222;2022-07-23T16:06:50;33.50;1.00
4054;DHT22;2042;47.956;9.222;2022-07-23T16:09:16;33.80;1.00
4054;DHT22;2042;47.956;9.222;2022-07-23T16:11:42;34.20;1.00
4054;DHT22;2042;47.956;9.222;2022-07-23T16:14:08;34.30;1.00
4054;DHT22;2042;47.956;9.222;2022-07-23T16:16:34;34.20;1.00
4054;DHT22;2042;47.956;9.222;2022-07-23T16:19:00;34.10;1.00
4054;DHT22;2042;47.956;9.222;2022-07-23T16:21:27;33.90;1.00
4054;DHT22;2042;47.956;9.222;2022-07-23T16:23:53;33.40;1.00
4054;DHT22;2042;47.956;9.222;2022-07-23T16:26:18;33.20;1.00
4054;DHT22;2042;47.956;9.222;2022-07-23T16:28:46;32.80;1.00
4054;DHT22;2042;47.956;9.222;2022-07-23T16:31:12;32.40;1.00
4054;DHT22;2042;47.956;9.222;2022-07-23T16:33:39;32.50;1.00
4054;DHT22;2042;47.956;9.222;2022-07-23T16:36:06;32.20;1.00
4054;DHT22;2042;47.956;9.222;2022-07-23T16:38:36;32.10;1.00
4054;DHT22;2042;47.956;9.222;2022-07-23T16:41:04;32.00;1.00
4054;DHT22;2042;47.956;9.222;2022-07-23T16:43:30;31.10;1.00
4054;DHT22;2042;47.956;9.222;2022-07-23T16:46:00;30.40;1.00
4054;DHT22;2042;47.956;9.222;2022-07-23T16:48:26;30.50;1.00
4054;DHT22;2042;47.956;9.222;2022-07-23T16:50:52;30.90;1.00